Time;durP1;ratioP1;P1;durP2;ratioP2;P2;SDS_P1;SDS_P2;PMS_P1;PMS_P2;Temp;Humidity;BMP_temperature;BMP_pressure;BME280_temperature;BME280_humidity;BME280_pressure;Samples;Min_cycle;Max_cycle;Signal;HPM_P1;HPM_P2
2021/05/06 00:04:53;;;;;;;2.20;0.70;;;;;;;;;;5057330;28;20347;-81
2021/05/06 00:07:45;;;;;;;3.22;0.95;;;;;;;;;;5056571;28;20045;-81
2021/05/06 00:10:51;;;;;;;3.47;1.90;;;;;;;;;;5056875;28;20032;-81
2021/05/06 00:30:10;;;;;;;2.40;0.73;;;;;;;;;;5078757;28;20110;-81
2021/05/06 00:32:38;;;;;;;1.20;0.70;;;;;;;;;;5078480;28;20091;-81
2021/05/06 00:35:05;;;;;;;3.08;1.10;;;;;;;;;;5078003;28;20464;-80
2021/05/06 00:37:40;;;;;;;2.97;1.10;;;;;;;;;;5077120;28;20322;-81
2021/05/06 00:40:07;;;;;;;3.22;0.98;;;;;;;;;;5078159;28;20044;-81
2021/05/06 00:42:48;;;;;;;0.82;0.63;;;;;;;;;;5078030;28;20024;-81
2021/05/06 00:56:38;;;;;;;1.42;1.00;;;;;;;;;;5078202;28;20039;-81
2021/05/06 01:09:37;;;;;;;1.33;0.70;;;;;;;;;;5055634;28;20040;-81
2021/05/06 01:12:04;;;;;;;1.48;0.90;;;;;;;;;;5055859;28;20021;-82
2021/05/06 01:14:31;;;;;;;1.67;1.00;;;;;;;;;;5055732;28;20078;-81
2021/05/06 01:16:57;;;;;;;1.67;1.00;;;;;;;;;;5055692;28;20029;-82
2021/05/06 01:19:23;;;;;;;3.78;1.15;;;;;;;;;;5055716;28;20056;-82
2021/05/06 01:21:50;;;;;;;1.63;1.00;;;;;;;;;;5055812;28;20147;-81
2021/05/06 01:24:16;;;;;;;2.10;0.70;;;;;;;;;;5055576;28;20032;-81
2021/05/06 01:27:05;;;;;;;1.35;0.77;;;;;;;;;;5054987;28;20041;-80
2021/05/06 01:29:33;;;;;;;1.88;0.80;;;;;;;;;;5055421;28;20115;-80
2021/05/06 01:32:19;;;;;;;2.70;1.02;;;;;;;;;;5055375;28;20070;-81
2021/05/06 01:34:49;;;;;;;1.60;0.82;;;;;;;;;;5055423;28;20017;-80
2021/05/06 01:37:24;;;;;;;2.08;0.85;;;;;;;;;;5055296;28;20049;-80
2021/05/06 01:42:41;;;;;;;2.03;0.90;;;;;;;;;;5055562;28;20086;-80
2021/05/06 01:48:14;;;;;;;1.92;0.80;;;;;;;;;;5055121;28;20395;-80
2021/05/06 01:59:02;;;;;;;1.77;0.70;;;;;;;;;;5055073;28;20036;-80
2021/05/06 02:01:28;;;;;;;4.45;0.95;;;;;;;;;;5055031;28;20033;-80
2021/05/06 02:03:55;;;;;;;1.58;0.80;;;;;;;;;;5037981;28;20028;-80
2021/05/06 02:06:21;;;;;;;1.17;0.70;;;;;;;;;;5054772;28;20088;-81
2021/05/06 02:08:47;;;;;;;2.08;0.93;;;;;;;;;;5054805;28;20029;-80
2021/05/06 02:11:13;;;;;;;3.13;1.00;;;;;;;;;;5038337;28;20041;-80
2021/05/06 02:13:40;;;;;;;1.30;0.70;;;;;;;;;;5054882;28;20031;-80
2021/05/06 02:16:15;;;;;;;3.42;0.68;;;;;;;;;;5054901;28;20356;-81
2021/05/06 02:18:41;;;;;;;1.73;0.90;;;;;;;;;;5054810;28;20369;-80
2021/05/06 02:21:10;;;;;;;3.75;0.98;;;;;;;;;;5055009;28;20039;-80
2021/05/06 02:23:37;;;;;;;1.88;0.90;;;;;;;;;;5058388;28;20296;-80
2021/05/06 02:26:03;;;;;;;2.08;1.00;;;;;;;;;;5076714;28;20036;-80
2021/05/06 02:28:29;;;;;;;2.38;1.08;;;;;;;;;;5076650;28;20047;-80
2021/05/06 02:30:55;;;;;;;1.48;1.00;;;;;;;;;;5076917;28;20090;-81
2021/05/06 02:33:21;;;;;;;1.77;1.00;;;;;;;;;;5076703;28;20416;-81
2021/05/06 02:35:47;;;;;;;1.88;0.82;;;;;;;;;;5076784;28;20025;-81
2021/05/06 02:38:13;;;;;;;2.17;1.10;;;;;;;;;;5077287;28;20016;-80
2021/05/06 02:40:39;;;;;;;2.95;1.08;;;;;;;;;;5080581;28;20025;-81
2021/05/06 02:43:06;;;;;;;2.88;1.20;;;;;;;;;;5080370;28;20024;-81
2021/05/06 02:45:32;;;;;;;3.05;0.98;;;;;;;;;;5080639;28;20088;-81
2021/05/06 02:47:58;;;;;;;1.80;0.70;;;;;;;;;;5079283;28;20028;-82
2021/05/06 02:50:25;;;;;;;2.25;0.77;;;;;;;;;;5080320;28;20497;-81
2021/05/06 02:52:59;;;;;;;2.13;0.60;;;;;;;;;;5080322;28;20029;-81
2021/05/06 03:03:43;;;;;;;2.30;0.50;;;;;;;;;;5058637;28;20075;-82
2021/05/06 03:06:15;;;;;;;1.92;0.70;;;;;;;;;;5058015;28;20426;-82
2021/05/06 03:08:44;;;;;;;3.58;0.75;;;;;;;;;;5058338;28;20095;-82
2021/05/06 03:24:56;;;;;;;1.73;0.77;;;;;;;;;;4998519;28;20053;-82
2021/05/06 03:27:27;;;;;;;1.48;0.80;;;;;;;;;;4998284;28;20039;-82
2021/05/06 04:19:07;;;;;;;3.72;0.90;;;;;;;;;;5037025;28;20075;-82
2021/05/06 04:37:31;;;;;;;4.18;1.10;;;;;;;;;;5038857;28;20060;-95
2021/05/06 04:40:06;;;;;;;6.07;1.45;;;;;;;;;;5064247;28;20341;-94
2021/05/06 04:42:50;;;;;;;3.25;1.25;;;;;;;;;;5079285;28;20032;-93
2021/05/06 04:53:41;;;;;;;2.17;1.00;;;;;;;;;;5057390;28;20051;-93
2021/05/06 04:58:49;;;;;;;4.93;0.70;;;;;;;;;;5057056;28;20051;-92
2021/05/06 05:04:31;;;;;;;3.20;1.00;;;;;;;;;;4997637;28;20065;-94
2021/05/06 05:12:08;;;;;;;1.98;0.90;;;;;;;;;;4997410;28;20294;-93
2021/05/06 05:25:27;;;;;;;;;;;;;;;;;;4997654;28;20451;-93
2021/05/06 05:30:57;;;;;;;1.63;0.80;;;;;;;;;;4996603;28;20065;-82
2021/05/06 05:33:25;;;;;;;2.22;0.70;;;;;;;;;;4996887;28;20030;-90
2021/05/06 05:36:09;;;;;;;3.15;0.90;;;;;;;;;;5059560;28;20067;-90
2021/05/06 05:38:51;;;;;;;1.30;0.88;;;;;;;;;;5078220;28;20024;-90
2021/05/06 05:55:14;;;;;;;1.90;0.95;;;;;;;;;;5056858;28;20108;-96
2021/05/06 05:57:40;;;;;;;3.75;1.15;;;;;;;;;;5056988;28;20029;-95
2021/05/06 06:00:06;;;;;;;1.92;0.90;;;;;;;;;;5040040;28;20056;-96
2021/05/06 06:02:35;;;;;;;1.67;0.90;;;;;;;;;;5056403;28;20320;-96
2021/05/06 06:05:01;;;;;;;2.53;0.93;;;;;;;;;;5039831;28;20060;-95
2021/05/06 06:07:28;;;;;;;5.47;0.95;;;;;;;;;;5055760;28;20049;-92
2021/05/06 06:09:54;;;;;;;6.65;3.20;;;;;;;;;;5058313;28;20020;-93
2021/05/06 06:12:57;;;;;;;1.98;1.33;;;;;;;;;;5056928;28;20439;-96
2021/05/06 06:18:09;;;;;;;4.35;0.93;;;;;;;;;;5060241;28;20112;-95
2021/05/06 06:20:38;;;;;;;2.13;0.60;;;;;;;;;;5043233;28;20021;-95
2021/05/06 06:23:04;;;;;;;3.72;0.90;;;;;;;;;;5068771;28;20029;-94
2021/05/06 06:25:30;;;;;;;4.03;0.85;;;;;;;;;;5081591;28;20028;-95
2021/05/06 06:27:56;;;;;;;1.00;0.60;;;;;;;;;;5081169;28;20024;-95
2021/05/06 06:30:23;;;;;;;2.45;0.75;;;;;;;;;;5080427;28;20048;-95
2021/05/06 06:32:50;;;;;;;3.22;0.70;;;;;;;;;;5080610;28;20027;-93
2021/05/06 06:35:16;;;;;;;5.57;0.68;;;;;;;;;;5081343;28;20024;-87
2021/05/06 06:37:42;;;;;;;1.00;0.50;;;;;;;;;;5081070;28;20030;-94
2021/05/06 06:40:10;;;;;;;2.22;0.50;;;;;;;;;;5081186;28;20025;-95
2021/05/06 06:42:36;;;;;;;4.10;1.70;;;;;;;;;;5080965;28;20104;-92
2021/05/06 06:45:03;;;;;;;4.05;2.00;;;;;;;;;;5080836;28;20036;-92
2021/05/06 06:47:29;;;;;;;2.80;1.20;;;;;;;;;;5080889;28;20020;-93
2021/05/06 06:49:55;;;;;;;3.67;1.77;;;;;;;;;;5081003;28;20025;-93
2021/05/06 06:52:21;;;;;;;5.78;1.40;;;;;;;;;;5080832;28;20067;-93
2021/05/06 06:54:49;;;;;;;6.68;2.47;;;;;;;;;;5080266;28;20039;-94
2021/05/06 06:57:15;;;;;;;7.97;2.00;;;;;;;;;;5080377;28;20024;-93
2021/05/06 06:59:41;;;;;;;3.10;1.30;;;;;;;;;;5080587;28;20033;-94
2021/05/06 07:02:07;;;;;;;2.03;0.68;;;;;;;;;;5079801;28;20028;-93
2021/05/06 07:04:33;;;;;;;1.65;0.57;;;;;;;;;;5079960;28;20039;-93
2021/05/06 07:06:59;;;;;;;3.70;0.60;;;;;;;;;;5079281;28;20067;-92
2021/05/06 07:09:25;;;;;;;2.03;0.90;;;;;;;;;;5080637;28;20050;-92
2021/05/06 07:11:52;;;;;;;2.88;0.70;;;;;;;;;;5080448;28;20017;-94
2021/05/06 07:14:18;;;;;;;2.17;0.60;;;;;;;;;;5079867;28;20119;-93
2021/05/06 07:16:44;;;;;;;1.45;0.60;;;;;;;;;;5080134;28;20029;-93
2021/05/06 07:19:10;;;;;;;2.40;0.70;;;;;;;;;;5080260;28;20028;-93
2021/05/06 07:21:36;;;;;;;2.00;0.60;;;;;;;;;;5080385;28;20020;-93
2021/05/06 07:24:02;;;;;;;1.27;0.88;;;;;;;;;;5079406;28;20048;-86
2021/05/06 07:26:29;;;;;;;4.90;0.80;;;;;;;;;;5079969;28;20020;-86
2021/05/06 07:28:55;;;;;;;1.63;0.93;;;;;;;;;;5079472;28;20016;-94
2021/05/06 07:31:21;;;;;;;2.00;1.10;;;;;;;;;;5079409;28;20059;-93
2021/05/06 07:33:49;;;;;;;1.52;1.10;;;;;;;;;;5080341;28;20047;-94
2021/05/06 07:36:15;;;;;;;1.85;0.80;;;;;;;;;;5079270;28;20119;-93
2021/05/06 07:38:42;;;;;;;1.95;0.60;;;;;;;;;;5080024;28;20115;-93
2021/05/06 07:41:11;;;;;;;1.48;0.88;;;;;;;;;;5079949;28;20055;-93
2021/05/06 07:43:37;;;;;;;2.20;0.80;;;;;;;;;;5079926;28;20024;-93
2021/05/06 07:46:03;;;;;;;1.15;0.50;;;;;;;;;;5079637;28;20035;-93
2021/05/06 07:48:29;;;;;;;2.22;0.93;;;;;;;;;;5079696;28;20111;-93
2021/05/06 07:50:55;;;;;;;1.65;0.93;;;;;;;;;;5079748;28;20048;-94
2021/05/06 07:53:26;;;;;;;2.47;1.33;;;;;;;;;;5079810;28;20025;-93
2021/05/06 07:55:53;;;;;;;4.50;0.80;;;;;;;;;;5079629;28;20020;-94
2021/05/06 07:58:20;;;;;;;2.20;1.20;;;;;;;;;;5079747;28;20055;-93
2021/05/06 08:00:46;;;;;;;1.02;0.60;;;;;;;;;;5078697;28;20449;-93
2021/05/06 08:03:12;;;;;;;2.83;1.02;;;;;;;;;;5079671;28;20029;-94
2021/05/06 08:05:38;;;;;;;5.22;0.70;;;;;;;;;;5078723;28;20054;-95
2021/05/06 08:08:05;;;;;;;2.22;0.60;;;;;;;;;;5079285;28;20116;-94
2021/05/06 08:10:31;;;;;;;1.10;0.75;;;;;;;;;;5078580;28;20029;-93
2021/05/06 08:12:59;;;;;;;3.13;0.70;;;;;;;;;;5079503;28;20025;-95
2021/05/06 08:15:25;;;;;;;0.80;0.60;;;;;;;;;;5078432;28;20403;-92
2021/05/06 08:17:53;;;;;;;1.85;0.90;;;;;;;;;;5079225;28;20464;-94
2021/05/06 08:20:20;;;;;;;2.88;0.70;;;;;;;;;;5079279;28;20032;-93
2021/05/06 08:22:46;;;;;;;2.22;0.82;;;;;;;;;;5079302;28;20024;-94
2021/05/06 08:25:13;;;;;;;1.50;0.73;;;;;;;;;;5078471;28;20033;-92
2021/05/06 08:27:39;;;;;;;1.90;1.00;;;;;;;;;;5077828;28;20024;-93
2021/05/06 08:30:06;;;;;;;3.47;1.20;;;;;;;;;;5078254;28;20025;-93
2021/05/06 08:32:32;;;;;;;4.78;2.67;;;;;;;;;;5078671;28;20016;-94
2021/05/06 08:34:58;;;;;;;2.08;1.38;;;;;;;;;;5079093;28;20020;-96
2021/05/06 08:37:24;;;;;;;3.45;1.67;;;;;;;;;;5077921;28;20078;-93
2021/05/06 08:39:51;;;;;;;5.22;0.77;;;;;;;;;;5078716;28;20025;-94
2021/05/06 08:42:18;;;;;;;4.13;0.77;;;;;;;;;;5078743;28;20043;-93
2021/05/06 08:44:44;;;;;;;3.75;1.13;;;;;;;;;;5077996;28;20020;-95
2021/05/06 08:47:23;;;;;;;2.95;1.50;;;;;;;;;;5078699;28;20032;-93
2021/05/06 08:49:50;;;;;;;2.95;1.40;;;;;;;;;;5078636;28;20151;-93
2021/05/06 08:52:19;;;;;;;3.05;1.00;;;;;;;;;;5077531;28;20054;-94
2021/05/06 08:54:46;;;;;;;4.70;2.75;;;;;;;;;;5078446;28;20296;-93
2021/05/06 08:57:13;;;;;;;4.40;2.80;;;;;;;;;;5078766;28;20027;-95
2021/05/06 08:59:39;;;;;;;3.88;2.05;;;;;;;;;;5077753;28;20040;-94
2021/05/06 09:02:05;;;;;;;14.07;8.18;;;;;;;;;;5078520;28;20422;-93
2021/05/06 09:04:31;;;;;;;10.75;5.88;;;;;;;;;;5078734;28;20093;-94
2021/05/06 09:06:58;;;;;;;4.45;2.72;;;;;;;;;;5077064;28;20079;-94
2021/05/06 09:09:24;;;;;;;4.50;2.10;;;;;;;;;;5077543;28;20037;-94
2021/05/06 09:11:51;;;;;;;7.68;1.92;;;;;;;;;;5078148;28;20395;-93
2021/05/06 09:14:18;;;;;;;3.70;1.88;;;;;;;;;;5078395;28;20021;-94
2021/05/06 09:16:45;;;;;;;3.95;1.80;;;;;;;;;;5078354;28;20023;-94
2021/05/06 09:19:20;;;;;;;2.72;1.60;;;;;;;;;;5078422;28;20039;-94
2021/05/06 09:21:46;;;;;;;3.38;2.17;;;;;;;;;;5077582;28;20082;-94
2021/05/06 09:24:20;;;;;;;2.92;0.90;;;;;;;;;;5077989;28;20059;-93
2021/05/06 09:26:46;;;;;;;4.90;1.40;;;;;;;;;;5078208;28;20025;-95
2021/05/06 09:29:12;;;;;;;1.27;1.00;;;;;;;;;;5078032;28;20410;-94
2021/05/06 09:31:40;;;;;;;3.42;1.20;;;;;;;;;;5078019;28;20407;-95
2021/05/06 09:34:07;;;;;;;5.53;1.20;;;;;;;;;;5077432;28;20307;-95
2021/05/06 09:36:34;;;;;;;4.35;0.75;;;;;;;;;;5078233;28;20115;-94
2021/05/06 09:39:00;;;;;;;3.80;1.90;;;;;;;;;;5077851;28;20029;-95
2021/05/06 09:41:29;;;;;;;3.22;1.70;;;;;;;;;;5077955;28;20020;-94
2021/05/06 09:43:55;;;;;;;3.47;1.55;;;;;;;;;;5077892;28;20410;-94
2021/05/06 09:46:23;;;;;;;2.33;1.40;;;;;;;;;;5077643;28;20461;-95
2021/05/06 09:49:01;;;;;;;7.05;1.25;;;;;;;;;;5076625;28;20025;-95
2021/05/06 09:51:47;;;;;;;9.00;3.38;;;;;;;;;;5077529;28;20027;-95
2021/05/06 09:54:22;;;;;;;7.57;3.85;;;;;;;;;;5077703;28;20021;-95
2021/05/06 09:56:55;;;;;;;20.15;8.52;;;;;;;;;;5077921;28;20070;-94
2021/05/06 09:59:23;;;;;;;4.90;2.22;;;;;;;;;;5076683;28;20094;-95
2021/05/06 10:01:49;;;;;;;3.80;1.90;;;;;;;;;;5077812;28;20139;-95
2021/05/06 10:04:17;;;;;;;4.38;1.98;;;;;;;;;;5077629;28;20039;-93
2021/05/06 10:06:43;;;;;;;5.00;1.88;;;;;;;;;;5077406;28;20064;-95
2021/05/06 10:09:11;;;;;;;3.80;1.92;;;;;;;;;;5077672;28;20044;-93
2021/05/06 10:11:37;;;;;;;2.70;1.83;;;;;;;;;;5077546;28;20410;-95
2021/05/06 10:14:03;;;;;;;8.32;4.03;;;;;;;;;;5077397;28;20051;-93
2021/05/06 10:16:30;;;;;;;4.75;1.00;;;;;;;;;;5077614;28;20047;-94
2021/05/06 10:18:57;;;;;;;3.33;2.08;;;;;;;;;;5077354;28;20361;-94
2021/05/06 10:21:23;;;;;;;2.35;1.20;;;;;;;;;;5076641;28;20031;-95
2021/05/06 10:23:50;;;;;;;2.50;1.35;;;;;;;;;;5077561;28;20021;-93
2021/05/06 10:26:19;;;;;;;1.35;0.88;;;;;;;;;;5077381;28;20032;-94
2021/05/06 10:28:45;;;;;;;4.13;1.50;;;;;;;;;;5076545;28;20028;-93
2021/05/06 10:31:11;;;;;;;1.63;0.80;;;;;;;;;;5076129;28;20075;-94
2021/05/06 10:33:40;;;;;;;3.88;1.10;;;;;;;;;;5076381;28;20441;-96
2021/05/06 10:36:07;;;;;;;3.47;1.58;;;;;;;;;;5076515;28;20029;-95
2021/05/06 10:38:35;;;;;;;9.35;1.98;;;;;;;;;;5077441;28;20159;-94
2021/05/06 10:41:19;;;;;;;3.92;1.60;;;;;;;;;;5077329;28;20446;-94
2021/05/06 10:43:52;;;;;;;3.47;1.30;;;;;;;;;;5076338;28;20039;-94
2021/05/06 10:46:18;;;;;;;3.85;1.13;;;;;;;;;;5076866;28;20016;-91
2021/05/06 10:49:04;;;;;;;2.15;1.10;;;;;;;;;;5076193;28;20079;-94
2021/05/06 10:51:36;;;;;;;2.90;1.20;;;;;;;;;;5077129;28;20074;-95
2021/05/06 10:54:02;;;;;;;;;;;;;;;;;;5077435;28;20017;-95
2021/05/06 10:56:39;;;;;;;1.85;1.10;;;;;;;;;;5076265;28;19911;-95
2021/05/06 10:59:21;;;;;;;2.85;1.27;;;;;;;;;;5076195;28;20020;-93
2021/05/06 11:01:47;;;;;;;2.38;1.27;;;;;;;;;;5080971;28;20093;-94
2021/05/06 11:04:13;;;;;;;2.78;1.70;;;;;;;;;;5079748;28;20025;-95
2021/05/06 11:06:40;;;;;;;1.80;1.17;;;;;;;;;;5080685;28;20044;-95
2021/05/06 11:09:29;;;;;;;1.38;0.73;;;;;;;;;;5080520;28;20049;-95
2021/05/06 11:12:31;;;;;;;1.50;0.80;;;;;;;;;;5080062;28;20043;-95
2021/05/06 11:15:00;;;;;;;4.40;2.33;;;;;;;;;;5062154;28;20406;-95
2021/05/06 11:17:46;;;;;;;5.82;1.83;;;;;;;;;;5078790;28;20155;-95
2021/05/06 11:20:12;;;;;;;2.63;0.95;;;;;;;;;;5079006;28;20032;-93
2021/05/06 11:22:48;;;;;;;2.53;1.20;;;;;;;;;;5078787;28;20037;-94
2021/05/06 11:25:39;;;;;;;4.93;1.00;;;;;;;;;;5078606;28;20354;-95
2021/05/06 11:28:06;;;;;;;1.00;0.90;;;;;;;;;;5061977;28;20028;-95
2021/05/06 11:30:34;;;;;;;2.13;0.85;;;;;;;;;;5078565;28;20450;-95
2021/05/06 11:33:15;;;;;;;4.22;2.75;;;;;;;;;;5078533;28;20424;-95
2021/05/06 11:35:57;;;;;;;11.43;4.90;;;;;;;;;;5078638;28;20039;-93
2021/05/06 11:38:23;;;;;;;;;;;;;;;;;;5078901;28;20052;-95
2021/05/06 11:40:49;;;;;;;2.90;1.02;;;;;;;;;;5078452;28;19912;-94
2021/05/06 11:43:22;;;;;;;1.98;0.90;;;;;;;;;;5078237;28;20541;-95
2021/05/06 11:45:48;;;;;;;3.58;1.50;;;;;;;;;;5061586;28;20331;-94
2021/05/06 11:48:15;;;;;;;4.80;1.27;;;;;;;;;;5078669;28;20029;-94
2021/05/06 11:50:45;;;;;;;1.90;0.90;;;;;;;;;;5078908;28;20024;-94
2021/05/06 11:53:18;;;;;;;2.53;1.05;;;;;;;;;;5079758;28;20016;-94
2021/05/06 11:55:44;;;;;;;6.50;4.15;;;;;;;;;;5078803;28;20032;-94
2021/05/06 11:58:11;;;;;;;4.70;1.35;;;;;;;;;;5080025;28;20346;-94
2021/05/06 12:00:41;;;;;;;2.28;1.15;;;;;;;;;;5080119;28;20119;-94
2021/05/06 12:03:08;;;;;;;8.18;1.67;;;;;;;;;;5078623;28;20028;-94
2021/05/06 12:05:50;;;;;;;2.47;1.15;;;;;;;;;;5079712;28;20024;-94
2021/05/06 12:08:16;;;;;;;3.55;1.65;;;;;;;;;;5079494;28;20041;-93
2021/05/06 12:10:43;;;;;;;3.13;1.10;;;;;;;;;;5079431;28;20035;-96
2021/05/06 12:13:09;;;;;;;3.53;1.42;;;;;;;;;;5079537;28;20021;-94
2021/05/06 12:15:36;;;;;;;2.97;1.27;;;;;;;;;;5079379;28;20437;-85
2021/05/06 12:18:19;;;;;;;3.60;1.00;;;;;;;;;;5079377;28;20032;-91
2021/05/06 12:20:58;;;;;;;4.10;0.90;;;;;;;;;;5079061;28;20066;-93
2021/05/06 12:23:25;;;;;;;1.83;0.80;;;;;;;;;;5079483;28;20028;-92
2021/05/06 12:25:52;;;;;;;5.82;2.42;;;;;;;;;;5078221;28;20422;-92
2021/05/06 12:28:18;;;;;;;4.20;1.30;;;;;;;;;;5078141;28;20295;-92
2021/05/06 12:30:44;;;;;;;8.00;2.85;;;;;;;;;;5078951;28;20028;-92
2021/05/06 12:33:10;;;;;;;4.63;1.63;;;;;;;;;;5078926;28;20020;-92
2021/05/06 12:35:49;;;;;;;5.00;1.42;;;;;;;;;;5079059;28;20364;-89
2021/05/06 12:38:16;;;;;;;6.00;1.60;;;;;;;;;;5078775;28;20052;-93
2021/05/06 12:40:42;;;;;;;2.97;1.45;;;;;;;;;;5078165;28;20033;-92
2021/05/06 12:43:26;;;;;;;4.57;1.60;;;;;;;;;;5078891;28;20021;-93
2021/05/06 12:46:03;;;;;;;4.45;1.60;;;;;;;;;;5078693;28;20025;-94
2021/05/06 12:48:52;;;;;;;3.92;1.10;;;;;;;;;;5077757;28;20032;-93
2021/05/06 12:51:18;;;;;;;2.33;1.00;;;;;;;;;;5078920;28;20017;-94
2021/05/06 12:54:05;;;;;;;5.40;3.42;;;;;;;;;;5077876;28;20022;-92
2021/05/06 12:56:36;;;;;;;4.47;1.42;;;;;;;;;;5078580;28;20030;-91
2021/05/06 12:59:48;;;;;;;6.63;2.65;;;;;;;;;;5078693;28;20083;-92
2021/05/06 13:02:15;;;;;;;4.93;1.52;;;;;;;;;;5076828;28;20134;-91
2021/05/06 13:04:43;;;;;;;3.88;1.20;;;;;;;;;;5059821;28;20021;-87
2021/05/06 13:07:09;;;;;;;7.60;1.85;;;;;;;;;;5059561;28;20048;-88
2021/05/06 13:09:42;;;;;;;4.28;1.33;;;;;;;;;;5076602;28;20044;-87
2021/05/06 13:12:12;;;;;;;5.63;1.95;;;;;;;;;;5059427;28;20330;-88
2021/05/06 13:15:03;;;;;;;8.63;1.35;;;;;;;;;;5076413;28;20371;-88
2021/05/06 13:17:29;;;;;;;4.53;1.30;;;;;;;;;;5076423;28;20029;-88
2021/05/06 13:19:56;;;;;;;3.25;1.60;;;;;;;;;;5076375;28;20565;-87
2021/05/06 13:22:22;;;;;;;3.78;1.67;;;;;;;;;;5075806;28;20032;-88
2021/05/06 13:24:50;;;;;;;6.07;1.92;;;;;;;;;;5076231;28;20032;-88
2021/05/06 13:27:18;;;;;;;3.85;1.65;;;;;;;;;;5076171;28;20466;-88
2021/05/06 13:29:50;;;;;;;2.05;1.30;;;;;;;;;;5076213;28;20059;-87
2021/05/06 13:32:17;;;;;;;4.85;1.45;;;;;;;;;;5076684;28;20048;-88
2021/05/06 13:34:53;;;;;;;2.95;1.50;;;;;;;;;;5078007;28;20027;-87
2021/05/06 13:37:19;;;;;;;6.22;1.90;;;;;;;;;;5077753;28;20021;-88
2021/05/06 13:39:45;;;;;;;3.83;1.35;;;;;;;;;;5078074;28;20036;-88
2021/05/06 13:42:11;;;;;;;4.22;1.52;;;;;;;;;;5077808;28;20033;-89
2021/05/06 13:44:57;;;;;;;17.05;8.80;;;;;;;;;;5076782;28;20032;-88
2021/05/06 13:47:24;;;;;;;19.88;14.10;;;;;;;;;;5076774;28;20090;-88
2021/05/06 13:49:51;;;;;;;12.05;8.13;;;;;;;;;;5077891;28;20027;-89
2021/05/06 13:52:19;;;;;;;6.13;3.97;;;;;;;;;;5077626;28;20016;-88
2021/05/06 13:54:45;;;;;;;18.65;12.48;;;;;;;;;;5077079;28;20036;-88
2021/05/06 13:57:11;;;;;;;4.57;2.17;;;;;;;;;;5077671;28;20119;-88
2021/05/06 14:02:41;;;;;;;19.63;13.15;;;;;;;;;;5077878;28;20047;-88
2021/05/06 14:05:07;;;;;;;8.45;4.88;;;;;;;;;;5077608;28;20031;-89
2021/05/06 14:07:33;;;;;;;9.13;2.78;;;;;;;;;;5077620;28;20052;-88
2021/05/06 14:09:59;;;;;;;6.28;1.98;;;;;;;;;;5077531;28;20048;-89
2021/05/06 14:12:25;;;;;;;9.55;3.90;;;;;;;;;;5076758;28;20107;-89
2021/05/06 14:14:52;;;;;;;11.23;4.88;;;;;;;;;;5077511;28;20025;-89
2021/05/06 14:17:18;;;;;;;8.82;4.20;;;;;;;;;;5076582;28;20020;-89
2021/05/06 14:19:44;;;;;;;11.98;7.88;;;;;;;;;;5077650;28;20081;-89
2021/05/06 14:22:10;;;;;;;3.45;1.92;;;;;;;;;;5077560;28;20020;-89
2021/05/06 14:24:36;;;;;;;7.20;4.30;;;;;;;;;;5076399;28;20123;-89
2021/05/06 14:27:02;;;;;;;3.28;2.17;;;;;;;;;;5077373;28;20051;-90
2021/05/06 14:29:28;;;;;;;7.88;2.75;;;;;;;;;;5076664;28;20040;-89
2021/05/06 14:31:55;;;;;;;6.63;2.97;;;;;;;;;;5077361;28;20036;-90
2021/05/06 14:34:21;;;;;;;10.52;7.35;;;;;;;;;;5079760;28;20101;-89
2021/05/06 14:36:47;;;;;;;21.63;11.73;;;;;;;;;;5081159;28;20033;-89
2021/05/06 14:39:14;;;;;;;4.65;2.70;;;;;;;;;;5080056;28;20021;-89
2021/05/06 14:41:42;;;;;;;4.55;1.80;;;;;;;;;;5081198;28;20410;-90
2021/05/06 14:44:08;;;;;;;10.32;4.55;;;;;;;;;;5081161;28;20033;-90
2021/05/06 14:46:34;;;;;;;10.50;4.43;;;;;;;;;;5080141;28;20447;-90
2021/05/06 14:49:00;;;;;;;4.10;1.95;;;;;;;;;;5079963;28;20021;-89
2021/05/06 14:51:27;;;;;;;4.88;3.30;;;;;;;;;;5081062;28;20020;-89
2021/05/06 14:53:53;;;;;;;19.20;2.80;;;;;;;;;;5081345;28;20086;-89
2021/05/06 14:56:19;;;;;;;6.28;3.55;;;;;;;;;;5080866;28;20016;-90
2021/05/06 14:58:45;;;;;;;8.57;4.20;;;;;;;;;;5080715;28;20066;-90
2021/05/06 15:01:11;;;;;;;4.30;1.60;;;;;;;;;;5080971;28;20103;-89
2021/05/06 15:03:37;;;;;;;5.10;2.10;;;;;;;;;;5079911;28;20036;-89
2021/05/06 15:06:03;;;;;;;6.00;1.63;;;;;;;;;;5080388;28;20043;-87
2021/05/06 15:08:29;;;;;;;3.30;1.80;;;;;;;;;;5079719;28;20418;-82
2021/05/06 15:10:55;;;;;;;3.47;1.80;;;;;;;;;;5078831;28;20029;-82
2021/05/06 15:13:21;;;;;;;3.28;1.45;;;;;;;;;;5079924;28;20029;-81
2021/05/06 15:15:47;;;;;;;4.07;1.58;;;;;;;;;;5079606;28;20179;-81
2021/05/06 15:18:13;;;;;;;2.85;1.60;;;;;;;;;;5079688;28;20046;-81
2021/05/06 15:20:39;;;;;;;3.88;1.63;;;;;;;;;;5079982;28;20029;-81
2021/05/06 15:23:05;;;;;;;5.57;1.90;;;;;;;;;;5078702;28;20032;-81
2021/05/06 15:25:32;;;;;;;2.20;1.40;;;;;;;;;;5079707;28;20037;-82
2021/05/06 15:27:58;;;;;;;7.07;1.83;;;;;;;;;;5079391;28;20048;-82
2021/05/06 15:30:24;;;;;;;3.25;1.58;;;;;;;;;;5079489;28;20070;-81
2021/05/06 15:32:51;;;;;;;4.28;1.50;;;;;;;;;;5079583;28;20024;-82
2021/05/06 15:35:18;;;;;;;3.28;1.52;;;;;;;;;;5078700;28;20430;-81
2021/05/06 15:37:44;;;;;;;32.65;6.03;;;;;;;;;;5079515;28;20102;-80
2021/05/06 15:40:11;;;;;;;3.13;1.92;;;;;;;;;;5078709;28;20105;-80
2021/05/06 15:42:38;;;;;;;5.57;3.75;;;;;;;;;;5079501;28;20020;-81
2021/05/06 15:45:06;;;;;;;3.22;1.73;;;;;;;;;;5078579;28;20122;-81
2021/05/06 15:47:32;;;;;;;3.28;1.75;;;;;;;;;;5079525;28;20032;-81
2021/05/06 15:49:59;;;;;;;3.20;1.77;;;;;;;;;;5079409;28;20044;-80
2021/05/06 15:52:26;;;;;;;2.05;1.40;;;;;;;;;;5079527;28;20466;-80
2021/05/06 15:54:52;;;;;;;4.43;2.85;;;;;;;;;;5078122;28;20028;-81
2021/05/06 15:57:18;;;;;;;4.28;2.40;;;;;;;;;;5079232;28;20029;-80
2021/05/06 15:59:44;;;;;;;7.35;1.90;;;;;;;;;;5079323;28;20062;-80
2021/05/06 16:02:13;;;;;;;3.55;1.80;;;;;;;;;;5079136;28;20437;-80
2021/05/06 16:04:40;;;;;;;5.43;2.40;;;;;;;;;;5078956;28;20108;-81
2021/05/06 16:07:06;;;;;;;8.93;6.25;;;;;;;;;;5078590;28;20484;-80
2021/05/06 16:09:32;;;;;;;85.75;6.57;;;;;;;;;;5078958;28;20035;-81
2021/05/06 16:11:59;;;;;;;3.25;2.00;;;;;;;;;;5078046;28;20033;-82
2021/05/06 16:14:25;;;;;;;4.50;1.92;;;;;;;;;;5078755;28;20020;-84
2021/05/06 16:16:51;;;;;;;4.93;2.25;;;;;;;;;;5079080;28;20036;-81
2021/05/06 16:19:17;;;;;;;4.03;1.70;;;;;;;;;;5079022;28;20027;-82
2021/05/06 16:21:43;;;;;;;2.45;1.58;;;;;;;;;;5078888;28;20099;-83
2021/05/06 16:24:12;;;;;;;2.00;1.50;;;;;;;;;;5077933;28;20036;-83
2021/05/06 16:26:38;;;;;;;3.03;1.70;;;;;;;;;;5078824;28;20128;-82
2021/05/06 16:29:04;;;;;;;6.30;2.83;;;;;;;;;;5077855;28;20086;-82
2021/05/06 16:31:30;;;;;;;5.13;1.92;;;;;;;;;;5078561;28;20036;-81
2021/05/06 16:34:01;;;;;;;6.53;1.95;;;;;;;;;;5077405;28;20415;-82
2021/05/06 16:36:45;;;;;;;;;;;;;;;;;;5078811;28;20029;-82
2021/05/06 16:41:57;;;;;;;8.40;3.53;;;;;;;;;;5078543;28;20428;-82
2021/05/06 16:44:30;;;;;;;3.63;1.95;;;;;;;;;;5078247;28;20048;-82
2021/05/06 16:46:59;;;;;;;3.22;1.60;;;;;;;;;;5077069;28;20033;-82
2021/05/06 16:49:25;;;;;;;2.58;1.48;;;;;;;;;;5078091;28;20021;-82
2021/05/06 16:51:52;;;;;;;2.13;1.65;;;;;;;;;;5077243;28;20028;-82
2021/05/06 16:54:19;;;;;;;2.10;1.52;;;;;;;;;;5078219;28;20033;-82
2021/05/06 16:56:45;;;;;;;4.97;3.10;;;;;;;;;;5076362;28;20021;-82
2021/05/06 16:59:11;;;;;;;5.53;3.47;;;;;;;;;;5076766;28;20127;-81
2021/05/06 17:01:40;;;;;;;5.10;3.65;;;;;;;;;;5077953;28;20032;-83
2021/05/06 17:04:07;;;;;;;13.48;7.80;;;;;;;;;;5077546;28;20052;-82
2021/05/06 17:06:33;;;;;;;10.20;6.55;;;;;;;;;;5077678;28;20052;-82
2021/05/06 17:09:01;;;;;;;5.10;2.90;;;;;;;;;;5077818;28;20024;-82
2021/05/06 17:11:27;;;;;;;4.55;2.67;;;;;;;;;;5076806;28;20288;-82
2021/05/06 17:13:53;;;;;;;5.25;3.70;;;;;;;;;;5077601;28;20021;-82
2021/05/06 17:16:19;;;;;;;8.38;4.63;;;;;;;;;;5077757;28;20021;-82
2021/05/06 17:18:45;;;;;;;8.07;4.35;;;;;;;;;;5076532;28;20013;-82
2021/05/06 17:21:12;;;;;;;5.95;4.07;;;;;;;;;;5077901;28;20033;-82
2021/05/06 17:23:38;;;;;;;7.95;3.50;;;;;;;;;;5077370;28;20051;-82
2021/05/06 17:26:04;;;;;;;9.38;2.70;;;;;;;;;;5077685;28;20100;-82
2021/05/06 17:28:30;;;;;;;4.60;2.40;;;;;;;;;;5076573;28;20029;-82
2021/05/06 17:30:56;;;;;;;6.53;3.03;;;;;;;;;;5076253;28;20020;-82
2021/05/06 17:33:24;;;;;;;10.77;5.07;;;;;;;;;;5076557;28;20037;-82
2021/05/06 17:35:50;;;;;;;9.38;4.85;;;;;;;;;;5077431;28;20319;-83
2021/05/06 17:38:16;;;;;;;9.10;5.30;;;;;;;;;;5076518;28;20089;-83
2021/05/06 17:40:42;;;;;;;8.85;5.95;;;;;;;;;;5077370;28;20028;-82
2021/05/06 17:43:08;;;;;;;17.95;8.82;;;;;;;;;;5077432;28;20055;-83
2021/05/06 17:45:34;;;;;;;29.88;12.05;;;;;;;;;;5077502;28;20021;-83
2021/05/06 17:48:00;;;;;;;28.83;13.27;;;;;;;;;;5076540;28;20032;-83
2021/05/06 17:50:29;;;;;;;19.42;9.50;;;;;;;;;;5077347;28;20031;-80
2021/05/06 17:52:55;;;;;;;14.02;6.65;;;;;;;;;;5076892;28;20395;-82
2021/05/06 17:55:21;;;;;;;13.88;5.68;;;;;;;;;;5077144;28;20025;-82
2021/05/06 17:57:48;;;;;;;11.68;4.90;;;;;;;;;;5077223;28;20028;-82
2021/05/06 18:00:15;;;;;;;9.60;4.60;;;;;;;;;;5077136;28;20020;-83
2021/05/06 18:02:42;;;;;;;8.13;5.22;;;;;;;;;;5077023;28;20422;-82
2021/05/06 18:05:13;;;;;;;11.82;6.32;;;;;;;;;;5076759;28;20033;-82
2021/05/06 18:07:39;;;;;;;14.88;7.38;;;;;;;;;;5076928;28;20098;-83
2021/05/06 18:12:52;;;;;;;30.00;13.45;;;;;;;;;;5075065;28;20079;-82
2021/05/06 18:15:18;;;;;;;27.00;12.10;;;;;;;;;;5075277;28;20040;-82